createdAt,value
2017-01-13T00:00:02.080Z,101.87
2017-01-13T00:10:02.465Z,102.55
2017-01-13T00:20:02.954Z,102.72
2017-01-13T00:30:02.320Z,102.75
2017-01-13T00:40:02.718Z,102.74
2017-01-13T00:50:02.203Z,103
2017-01-13T01:00:02.570Z,103.55
2017-01-13T01:10:02.964Z,103.98
2017-01-13T01:20:02.446Z,104.21
2017-01-13T01:30:02.873Z,104.87
2017-01-13T01:40:02.256Z,104.51
2017-01-13T01:50:02.701Z,104.74
2017-01-13T02:00:02.089Z,104.56
2017-01-13T02:10:02.530Z,104.61
2017-01-13T02:20:02.055Z,105.23
2017-01-13T02:30:02.451Z,105.19
2017-01-13T02:40:02.847Z,105.11
2017-01-13T02:50:02.258Z,104.9
2017-01-13T03:00:02.639Z,105.13
2017-01-13T03:10:02.058Z,104.9
2017-01-13T03:20:02.599Z,104.65
2017-01-13T03:30:02.988Z,105.15
2017-01-13T03:40:02.411Z,104.9
2017-01-13T03:50:02.814Z,105.57
2017-01-13T04:00:02.214Z,106.04
2017-01-13T04:10:02.663Z,106.19
2017-01-13T04:20:02.210Z,105.86
2017-01-13T04:30:02.634Z,105.96
2017-01-13T04:40:03.048Z,106.37
2017-01-13T04:50:02.478Z,106.4
2017-01-13T05:00:02.920Z,106.61
2017-01-13T05:10:02.359Z,107.1
2017-01-13T05:20:02.879Z,107.14
2017-01-13T05:30:02.237Z,106.87
2017-01-13T05:40:02.332Z,107.41
2017-01-13T05:50:02.831Z,107.32
2017-01-13T06:00:02.255Z,107.35
2017-01-13T06:10:02.719Z,107.22
2017-01-13T06:20:02.220Z,107.09
2017-01-13T06:30:02.688Z,106.79
2017-01-13T06:40:02.137Z,106.93
2017-01-13T06:50:02.576Z,107.11
2017-01-13T07:00:02.986Z,106.92
2017-01-13T07:10:02.382Z,107.05
2017-01-13T07:20:02.888Z,107.21
2017-01-13T07:30:02.294Z,107.22
2017-01-13T07:40:02.734Z,107.24
2017-01-13T07:50:02.168Z,107
2017-01-13T08:00:02.621Z,107.19
2017-01-13T08:10:02.021Z,107.17
2017-01-13T08:20:02.425Z,107.23
2017-01-13T08:30:02.837Z,107.12
2017-01-13T08:40:02.240Z,107.02
2017-01-13T08:50:02.655Z,107.05
2017-01-13T09:00:02.052Z,107.18
2017-01-13T09:10:02.482Z,107.41
2017-01-13T09:20:03.010Z,107.45
2017-01-13T09:30:02.423Z,107.39
2017-01-13T09:40:02.829Z,107.02
2017-01-13T09:50:02.241Z,107.2
2017-01-13T10:00:02.686Z,107.28
2017-01-13T10:10:02.102Z,107.17
2017-01-13T10:20:02.616Z,107.52
2017-01-13T10:30:02.981Z,107.38
2017-01-13T10:40:02.408Z,107.08
2017-01-13T10:50:02.883Z,106.65
2017-01-13T11:00:02.264Z,106.19
2017-01-13T11:10:02.708Z,105.82
2017-01-13T11:20:02.225Z,105.13
2017-01-13T11:30:02.602Z,104.36
2017-01-13T11:40:03.043Z,103.79
2017-01-13T11:50:02.294Z,103.79
2017-01-13T12:00:02.536Z,103.04
2017-01-13T12:10:02.810Z,102.49
2017-01-13T12:20:02.174Z,102.71
2017-01-13T12:30:02.386Z,101.91
2017-01-13T12:40:02.659Z,102.54
2017-01-13T12:50:02.080Z,102.36
2017-01-13T13:00:02.613Z,101.79
2017-01-13T13:10:03.029Z,102.44
2017-01-13T13:20:02.513Z,101.75
2017-01-13T13:30:02.886Z,101.04
2017-01-13T13:40:02.237Z,101.44
2017-01-13T13:50:02.666Z,100.4
2017-01-13T14:00:02.065Z,100.62
2017-01-13T14:10:02.445Z,99.61
2017-01-13T14:20:02.988Z,100.4
2017-01-13T14:30:02.369Z,100.06
2017-01-13T14:40:02.765Z,99.5
2017-01-13T14:50:02.123Z,99.64
2017-01-13T15:00:02.607Z,98.63
2017-01-13T15:10:03.026Z,97.9
2017-01-13T15:20:02.476Z,98.85
2017-01-13T15:30:02.999Z,98.36
2017-01-13T15:40:02.663Z,98.5
2017-01-13T15:50:02.246Z,99.21
2017-01-13T16:00:02.650Z,99.74
2017-01-13T16:10:02.038Z,98.98
2017-01-13T16:20:02.553Z,98.18
2017-01-13T16:30:02.617Z,98.98
2017-01-13T16:40:03.038Z,98.99
2017-01-13T16:50:02.411Z,98.46
2017-01-13T17:00:02.967Z,98.54
2017-01-13T17:10:02.662Z,98.41
2017-01-13T17:20:02.759Z,98.37
2017-01-13T17:30:02.164Z,98.52
2017-01-13T17:40:02.688Z,98.94
2017-01-13T17:50:02.118Z,98.32
2017-01-13T18:00:02.890Z,96.76
2017-01-13T18:10:02.262Z,94.25
2017-01-13T18:20:02.756Z,93.01
2017-01-13T18:30:02.159Z,94.4
2017-01-13T18:40:02.567Z,92.9
2017-01-13T18:50:03.022Z,93.84
2017-01-13T19:00:02.445Z,93.72
2017-01-13T19:10:02.799Z,95.92
2017-01-13T19:20:02.286Z,94.94
2017-01-13T19:30:02.660Z,94.83
2017-01-13T19:40:02.113Z,94.67
2017-01-13T19:50:02.563Z,94.26
2017-01-13T20:00:02.987Z,93.48
2017-01-13T20:10:02.411Z,93.83
2017-01-13T20:20:02.998Z,94.22
2017-01-13T20:30:02.445Z,94.08
2017-01-13T20:40:02.820Z,95.86
2017-01-13T20:50:02.294Z,98.1
2017-01-13T21:00:02.767Z,99.24
2017-01-13T21:10:02.217Z,99.85
2017-01-13T21:20:02.751Z,101.12
2017-01-13T21:30:02.159Z,101.4
2017-01-13T21:40:02.697Z,101.82
2017-01-13T21:50:02.152Z,102.19
2017-01-13T22:00:02.635Z,103.1
2017-01-13T22:10:03.058Z,103.51
2017-01-13T22:20:02.563Z,103.61
2017-01-13T22:30:02.964Z,104.45
2017-01-13T22:40:02.377Z,104.07
2017-01-13T22:50:02.822Z,104.7
2017-01-13T23:00:02.247Z,104.74
2017-01-13T23:10:02.646Z,104.56
2017-01-13T23:20:02.145Z,105.19
2017-01-13T23:30:02.530Z,105.7
2017-01-13T23:40:02.933Z,105.91
2017-01-13T23:50:02.354Z,105.72
